sensor_id;sensor_type;location;lat;lon;timestamp;P1;durP1;ratioP1;P2;durP2;ratioP2
1957;SDS011;979;51.076;13.748;2023-06-22T00:00:40;29.23;;;27.13;;
1957;SDS011;979;51.076;13.748;2023-06-22T00:03:10;29.47;;;27.60;;
1957;SDS011;979;51.076;13.748;2023-06-22T00:05:39;29.43;;;27.53;;
1957;SDS011;979;51.076;13.748;2023-06-22T00:08:08;29.20;;;27.20;;
1957;SDS011;979;51.076;13.748;2023-06-22T00:10:38;27.30;;;25.67;;
1957;SDS011;979;51.076;13.748;2023-06-22T00:13:08;29.27;;;27.47;;
1957;SDS011;979;51.076;13.748;2023-06-22T00:15:37;29.83;;;27.73;;
1957;SDS011;979;51.076;13.748;2023-06-22T00:18:07;29.93;;;27.57;;
1957;SDS011;979;51.076;13.748;2023-06-22T00:20:37;29.73;;;27.67;;
1957;SDS011;979;51.076;13.748;2023-06-22T00:23:06;29.30;;;27.50;;
1957;SDS011;979;51.076;13.748;2023-06-22T00:25:35;29.80;;;27.83;;
1957;SDS011;979;51.076;13.748;2023-06-22T00:28:04;29.90;;;27.87;;
1957;SDS011;979;51.076;13.748;2023-06-22T00:30:34;27.80;;;26.00;;
1957;SDS011;979;51.076;13.748;2023-06-22T00:33:02;28.73;;;26.87;;
1957;SDS011;979;51.076;13.748;2023-06-22T00:35:34;28.60;;;26.80;;
1957;SDS011;979;51.076;13.748;2023-06-22T00:38:04;28.60;;;26.77;;
1957;SDS011;979;51.076;13.748;2023-06-22T00:40:33;30.43;;;28.33;;
1957;SDS011;979;51.076;13.748;2023-06-22T00:43:01;29.80;;;27.90;;
1957;SDS011;979;51.076;13.748;2023-06-22T00:45:30;29.03;;;27.03;;
1957;SDS011;979;51.076;13.748;2023-06-22T00:48:00;29.63;;;27.83;;
1957;SDS011;979;51.076;13.748;2023-06-22T00:50:30;29.87;;;27.80;;
1957;SDS011;979;51.076;13.748;2023-06-22T00:53:03;28.37;;;26.60;;
1957;SDS011;979;51.076;13.748;2023-06-22T00:55:35;29.30;;;27.50;;
1957;SDS011;979;51.076;13.748;2023-06-22T00:58:05;28.30;;;26.53;;
1957;SDS011;979;51.076;13.748;2023-06-22T01:00:37;30.43;;;28.50;;
1957;SDS011;979;51.076;13.748;2023-06-22T01:03:06;29.17;;;27.37;;
1957;SDS011;979;51.076;13.748;2023-06-22T01:05:36;29.73;;;27.80;;
1957;SDS011;979;51.076;13.748;2023-06-22T01:08:08;29.63;;;27.73;;
1957;SDS011;979;51.076;13.748;2023-06-22T01:10:48;29.00;;;27.00;;
1957;SDS011;979;51.076;13.748;2023-06-22T01:13:23;29.83;;;27.83;;
1957;SDS011;979;51.076;13.748;2023-06-22T01:15:59;29.10;;;27.23;;
1957;SDS011;979;51.076;13.748;2023-06-22T01:18:31;29.20;;;27.30;;
1957;SDS011;979;51.076;13.748;2023-06-22T01:21:03;29.70;;;27.23;;
1957;SDS011;979;51.076;13.748;2023-06-22T01:23:41;29.07;;;27.27;;
1957;SDS011;979;51.076;13.748;2023-06-22T01:26:35;28.37;;;26.50;;
1957;SDS011;979;51.076;13.748;2023-06-22T01:29:10;28.90;;;27.07;;
1957;SDS011;979;51.076;13.748;2023-06-22T01:31:40;30.73;;;28.70;;
1957;SDS011;979;51.076;13.748;2023-06-22T01:34:11;30.47;;;28.47;;
1957;SDS011;979;51.076;13.748;2023-06-22T01:36:41;29.50;;;27.57;;
1957;SDS011;979;51.076;13.748;2023-06-22T01:39:11;30.30;;;28.50;;
1957;SDS011;979;51.076;13.748;2023-06-22T01:41:40;31.70;;;29.40;;
1957;SDS011;979;51.076;13.748;2023-06-22T01:44:12;30.07;;;28.00;;
1957;SDS011;979;51.076;13.748;2023-06-22T01:46:41;29.50;;;27.60;;
1957;SDS011;979;51.076;13.748;2023-06-22T01:49:09;28.70;;;26.90;;
1957;SDS011;979;51.076;13.748;2023-06-22T01:51:40;28.27;;;26.57;;
1957;SDS011;979;51.076;13.748;2023-06-22T01:54:08;28.47;;;26.67;;
1957;SDS011;979;51.076;13.748;2023-06-22T01:56:38;28.17;;;26.30;;
1957;SDS011;979;51.076;13.748;2023-06-22T01:59:09;28.27;;;26.47;;
1957;SDS011;979;51.076;13.748;2023-06-22T02:01:47;28.03;;;26.27;;
1957;SDS011;979;51.076;13.748;2023-06-22T02:04:20;29.30;;;27.43;;
1957;SDS011;979;51.076;13.748;2023-06-22T02:06:53;28.00;;;26.40;;
1957;SDS011;979;51.076;13.748;2023-06-22T02:09:24;28.43;;;26.63;;
1957;SDS011;979;51.076;13.748;2023-06-22T02:11:59;28.73;;;26.90;;
1957;SDS011;979;51.076;13.748;2023-06-22T02:14:33;29.07;;;27.27;;
1957;SDS011;979;51.076;13.748;2023-06-22T02:17:03;29.63;;;27.73;;
1957;SDS011;979;51.076;13.748;2023-06-22T02:19:35;15.50;;;15.10;;
1957;SDS011;979;51.076;13.748;2023-06-22T02:22:04;15.50;;;15.10;;
1957;SDS011;979;51.076;13.748;2023-06-22T02:24:35;16.10;;;15.60;;
1957;SDS011;979;51.076;13.748;2023-06-22T02:27:06;15.80;;;15.40;;
1957;SDS011;979;51.076;13.748;2023-06-22T02:29:36;15.40;;;15.00;;
1957;SDS011;979;51.076;13.748;2023-06-22T02:32:05;15.30;;;14.90;;
1957;SDS011;979;51.076;13.748;2023-06-22T02:34:36;15.50;;;15.10;;
1957;SDS011;979;51.076;13.748;2023-06-22T02:37:04;15.50;;;15.10;;
1957;SDS011;979;51.076;13.748;2023-06-22T02:39:34;15.40;;;15.00;;
1957;SDS011;979;51.076;13.748;2023-06-22T02:42:07;15.87;;;15.47;;
1957;SDS011;979;51.076;13.748;2023-06-22T02:44:38;15.50;;;15.10;;
1957;SDS011;979;51.076;13.748;2023-06-22T02:47:07;15.60;;;15.20;;
1957;SDS011;979;51.076;13.748;2023-06-22T02:49:38;15.70;;;15.30;;
1957;SDS011;979;51.076;13.748;2023-06-22T02:52:07;15.60;;;15.20;;
1957;SDS011;979;51.076;13.748;2023-06-22T02:54:37;15.70;;;15.30;;
1957;SDS011;979;51.076;13.748;2023-06-22T02:57:06;15.70;;;15.30;;
1957;SDS011;979;51.076;13.748;2023-06-22T02:59:43;15.70;;;15.30;;
1957;SDS011;979;51.076;13.748;2023-06-22T03:02:12;15.20;;;14.80;;
1957;SDS011;979;51.076;13.748;2023-06-22T03:04:41;15.00;;;14.60;;
1957;SDS011;979;51.076;13.748;2023-06-22T03:07:10;15.00;;;14.60;;
1957;SDS011;979;51.076;13.748;2023-06-22T03:09:38;14.97;;;14.57;;
1957;SDS011;979;51.076;13.748;2023-06-22T03:12:07;14.77;;;14.37;;
1957;SDS011;979;51.076;13.748;2023-06-22T03:14:45;15.17;;;14.77;;
1957;SDS011;979;51.076;13.748;2023-06-22T03:17:14;15.00;;;14.60;;
1957;SDS011;979;51.076;13.748;2023-06-22T03:19:42;28.50;;;26.60;;
1957;SDS011;979;51.076;13.748;2023-06-22T03:22:11;28.90;;;26.87;;
1957;SDS011;979;51.076;13.748;2023-06-22T03:24:41;29.33;;;27.43;;
1957;SDS011;979;51.076;13.748;2023-06-22T03:27:12;28.13;;;26.33;;
1957;SDS011;979;51.076;13.748;2023-06-22T03:29:42;28.03;;;26.23;;
1957;SDS011;979;51.076;13.748;2023-06-22T03:32:12;28.80;;;27.00;;
1957;SDS011;979;51.076;13.748;2023-06-22T03:34:41;29.83;;;27.80;;
1957;SDS011;979;51.076;13.748;2023-06-22T03:37:14;29.30;;;27.50;;
1957;SDS011;979;51.076;13.748;2023-06-22T03:39:42;27.90;;;26.20;;
1957;SDS011;979;51.076;13.748;2023-06-22T03:42:11;28.10;;;26.43;;
1957;SDS011;979;51.076;13.748;2023-06-22T03:44:39;27.33;;;25.63;;
1957;SDS011;979;51.076;13.748;2023-06-22T03:47:08;29.00;;;27.10;;
1957;SDS011;979;51.076;13.748;2023-06-22T03:49:38;27.40;;;25.60;;
1957;SDS011;979;51.076;13.748;2023-06-22T03:52:09;26.70;;;25.10;;
1957;SDS011;979;51.076;13.748;2023-06-22T03:54:37;29.30;;;27.43;;
1957;SDS011;979;51.076;13.748;2023-06-22T03:57:05;28.90;;;27.00;;
1957;SDS011;979;51.076;13.748;2023-06-22T03:59:34;28.03;;;26.20;;
1957;SDS011;979;51.076;13.748;2023-06-22T04:02:03;26.50;;;25.00;;
1957;SDS011;979;51.076;13.748;2023-06-22T04:04:32;28.50;;;26.70;;
1957;SDS011;979;51.076;13.748;2023-06-22T04:07:03;28.70;;;26.90;;
1957;SDS011;979;51.076;13.748;2023-06-22T04:09:31;27.67;;;25.87;;
1957;SDS011;979;51.076;13.748;2023-06-22T04:12:00;28.53;;;26.47;;
1957;SDS011;979;51.076;13.748;2023-06-22T04:14:29;27.33;;;25.50;;
1957;SDS011;979;51.076;13.748;2023-06-22T04:16:57;27.17;;;25.30;;
1957;SDS011;979;51.076;13.748;2023-06-22T04:19:25;28.33;;;26.43;;
1957;SDS011;979;51.076;13.748;2023-06-22T04:21:56;28.47;;;26.70;;
1957;SDS011;979;51.076;13.748;2023-06-22T04:24:25;29.23;;;27.13;;
1957;SDS011;979;51.076;13.748;2023-06-22T04:26:54;26.90;;;25.30;;
1957;SDS011;979;51.076;13.748;2023-06-22T04:29:22;27.53;;;25.77;;
1957;SDS011;979;51.076;13.748;2023-06-22T04:31:56;27.30;;;25.40;;
1957;SDS011;979;51.076;13.748;2023-06-22T04:34:29;27.30;;;25.50;;
1957;SDS011;979;51.076;13.748;2023-06-22T04:36:57;26.47;;;24.83;;
1957;SDS011;979;51.076;13.748;2023-06-22T04:39:27;28.57;;;26.67;;
1957;SDS011;979;51.076;13.748;2023-06-22T04:41:55;28.00;;;26.00;;
1957;SDS011;979;51.076;13.748;2023-06-22T04:44:26;26.70;;;25.00;;
1957;SDS011;979;51.076;13.748;2023-06-22T04:47:01;27.00;;;25.30;;
1957;SDS011;979;51.076;13.748;2023-06-22T04:49:35;25.90;;;24.10;;
1957;SDS011;979;51.076;13.748;2023-06-22T04:52:07;27.07;;;25.40;;
1957;SDS011;979;51.076;13.748;2023-06-22T04:54:38;27.03;;;25.37;;
1957;SDS011;979;51.076;13.748;2023-06-22T04:57:14;26.17;;;24.47;;
1957;SDS011;979;51.076;13.748;2023-06-22T04:59:43;25.07;;;23.50;;
1957;SDS011;979;51.076;13.748;2023-06-22T05:02:13;25.60;;;24.07;;
1957;SDS011;979;51.076;13.748;2023-06-22T05:04:42;12.40;;;12.10;;
1957;SDS011;979;51.076;13.748;2023-06-22T05:07:13;14.80;;;14.50;;
1957;SDS011;979;51.076;13.748;2023-06-22T05:09:45;14.53;;;14.23;;
1957;SDS011;979;51.076;13.748;2023-06-22T05:12:15;14.60;;;14.30;;
1957;SDS011;979;51.076;13.748;2023-06-22T05:14:45;14.30;;;14.00;;
1957;SDS011;979;51.076;13.748;2023-06-22T05:17:16;14.67;;;14.30;;
1957;SDS011;979;51.076;13.748;2023-06-22T05:19:45;14.03;;;13.73;;
1957;SDS011;979;51.076;13.748;2023-06-22T05:22:17;14.57;;;14.27;;
1957;SDS011;979;51.076;13.748;2023-06-22T05:24:47;14.37;;;14.07;;
1957;SDS011;979;51.076;13.748;2023-06-22T05:27:15;16.57;;;16.17;;
1957;SDS011;979;51.076;13.748;2023-06-22T05:29:43;14.00;;;13.70;;
1957;SDS011;979;51.076;13.748;2023-06-22T05:32:14;14.60;;;14.30;;
1957;SDS011;979;51.076;13.748;2023-06-22T05:34:44;14.97;;;14.60;;
1957;SDS011;979;51.076;13.748;2023-06-22T05:37:12;14.47;;;14.17;;
1957;SDS011;979;51.076;13.748;2023-06-22T05:39:41;14.17;;;13.87;;
1957;SDS011;979;51.076;13.748;2023-06-22T05:42:10;14.60;;;14.30;;
1957;SDS011;979;51.076;13.748;2023-06-22T05:44:39;14.50;;;14.20;;
1957;SDS011;979;51.076;13.748;2023-06-22T05:47:09;14.83;;;14.53;;
1957;SDS011;979;51.076;13.748;2023-06-22T05:49:37;14.37;;;14.07;;
1957;SDS011;979;51.076;13.748;2023-06-22T05:52:06;15.47;;;15.07;;
1957;SDS011;979;51.076;13.748;2023-06-22T05:54:35;15.30;;;14.90;;
1957;SDS011;979;51.076;13.748;2023-06-22T05:57:03;14.40;;;14.10;;
1957;SDS011;979;51.076;13.748;2023-06-22T05:59:33;13.90;;;13.60;;
1957;SDS011;979;51.076;13.748;2023-06-22T06:02:01;14.90;;;14.60;;
1957;SDS011;979;51.076;13.748;2023-06-22T06:04:31;15.00;;;14.60;;
1957;SDS011;979;51.076;13.748;2023-06-22T06:07:02;15.30;;;14.90;;
1957;SDS011;979;51.076;13.748;2023-06-22T06:09:30;14.37;;;14.07;;
1957;SDS011;979;51.076;13.748;2023-06-22T06:11:59;15.00;;;14.60;;
1957;SDS011;979;51.076;13.748;2023-06-22T06:14:29;14.67;;;14.37;;
1957;SDS011;979;51.076;13.748;2023-06-22T06:16:58;14.77;;;14.47;;
1957;SDS011;979;51.076;13.748;2023-06-22T06:19:27;14.00;;;13.70;;
1957;SDS011;979;51.076;13.748;2023-06-22T06:21:55;26.63;;;24.87;;
1957;SDS011;979;51.076;13.748;2023-06-22T06:24:23;26.77;;;25.17;;
1957;SDS011;979;51.076;13.748;2023-06-22T06:26:52;26.73;;;25.23;;
1957;SDS011;979;51.076;13.748;2023-06-22T06:29:20;26.70;;;25.07;;
1957;SDS011;979;51.076;13.748;2023-06-22T06:31:50;27.47;;;25.87;;
1957;SDS011;979;51.076;13.748;2023-06-22T06:34:21;27.97;;;26.17;;
1957;SDS011;979;51.076;13.748;2023-06-22T06:36:52;27.30;;;25.70;;
1957;SDS011;979;51.076;13.748;2023-06-22T06:39:21;26.60;;;25.03;;
1957;SDS011;979;51.076;13.748;2023-06-22T06:41:49;27.57;;;25.93;;
1957;SDS011;979;51.076;13.748;2023-06-22T06:44:18;25.63;;;24.33;;
1957;SDS011;979;51.076;13.748;2023-06-22T06:46:49;27.27;;;25.67;;
1957;SDS011;979;51.076;13.748;2023-06-22T06:49:17;27.50;;;25.90;;
1957;SDS011;979;51.076;13.748;2023-06-22T06:51:47;26.83;;;25.47;;
1957;SDS011;979;51.076;13.748;2023-06-22T06:54:15;26.90;;;25.50;;
1957;SDS011;979;51.076;13.748;2023-06-22T06:56:44;28.70;;;26.97;;
1957;SDS011;979;51.076;13.748;2023-06-22T06:59:14;28.33;;;26.80;;
1957;SDS011;979;51.076;13.748;2023-06-22T07:01:43;29.07;;;27.10;;
1957;SDS011;979;51.076;13.748;2023-06-22T07:04:11;26.80;;;25.30;;
1957;SDS011;979;51.076;13.748;2023-06-22T07:06:42;28.60;;;26.90;;
1957;SDS011;979;51.076;13.748;2023-06-22T07:09:14;28.53;;;26.73;;
1957;SDS011;979;51.076;13.748;2023-06-22T07:11:42;28.13;;;26.40;;
1957;SDS011;979;51.076;13.748;2023-06-22T07:14:10;28.90;;;26.97;;
1957;SDS011;979;51.076;13.748;2023-06-22T07:16:39;28.87;;;27.27;;
1957;SDS011;979;51.076;13.748;2023-06-22T07:19:07;27.80;;;26.30;;
1957;SDS011;979;51.076;13.748;2023-06-22T07:21:38;30.43;;;28.40;;
1957;SDS011;979;51.076;13.748;2023-06-22T07:24:07;29.13;;;27.53;;
1957;SDS011;979;51.076;13.748;2023-06-22T07:26:38;28.70;;;27.00;;
1957;SDS011;979;51.076;13.748;2023-06-22T07:29:06;30.50;;;28.67;;
1957;SDS011;979;51.076;13.748;2023-06-22T07:31:35;29.53;;;27.73;;
1957;SDS011;979;51.076;13.748;2023-06-22T07:34:03;30.07;;;28.30;;
1957;SDS011;979;51.076;13.748;2023-06-22T07:36:33;30.50;;;28.90;;
1957;SDS011;979;51.076;13.748;2023-06-22T07:39:02;29.33;;;27.73;;
1957;SDS011;979;51.076;13.748;2023-06-22T07:41:31;30.83;;;29.13;;
1957;SDS011;979;51.076;13.748;2023-06-22T07:44:03;29.93;;;28.23;;
1957;SDS011;979;51.076;13.748;2023-06-22T07:46:32;28.73;;;26.83;;
1957;SDS011;979;51.076;13.748;2023-06-22T07:49:01;27.40;;;25.90;;
1957;SDS011;979;51.076;13.748;2023-06-22T07:51:30;29.53;;;27.67;;
1957;SDS011;979;51.076;13.748;2023-06-22T07:53:58;30.33;;;28.53;;
1957;SDS011;979;51.076;13.748;2023-06-22T07:56:26;28.90;;;27.20;;
1957;SDS011;979;51.076;13.748;2023-06-22T07:58:55;29.23;;;27.63;;
1957;SDS011;979;51.076;13.748;2023-06-22T08:01:26;29.90;;;28.20;;
1957;SDS011;979;51.076;13.748;2023-06-22T08:03:54;28.97;;;27.47;;
1957;SDS011;979;51.076;13.748;2023-06-22T08:06:25;28.07;;;26.60;;
1957;SDS011;979;51.076;13.748;2023-06-22T08:08:53;29.63;;;27.87;;
1957;SDS011;979;51.076;13.748;2023-06-22T08:11:23;28.13;;;26.60;;
1957;SDS011;979;51.076;13.748;2023-06-22T08:13:54;28.63;;;27.03;;
1957;SDS011;979;51.076;13.748;2023-06-22T08:16:26;28.23;;;26.73;;
1957;SDS011;979;51.076;13.748;2023-06-22T08:18:55;28.97;;;27.00;;
1957;SDS011;979;51.076;13.748;2023-06-22T08:21:23;26.80;;;25.40;;
1957;SDS011;979;51.076;13.748;2023-06-22T08:23:52;25.70;;;24.40;;
1957;SDS011;979;51.076;13.748;2023-06-22T08:26:20;27.73;;;26.33;;
1957;SDS011;979;51.076;13.748;2023-06-22T08:28:48;27.40;;;26.00;;
1957;SDS011;979;51.076;13.748;2023-06-22T08:31:17;26.50;;;25.23;;
1957;SDS011;979;51.076;13.748;2023-06-22T08:33:47;26.23;;;24.90;;
1957;SDS011;979;51.076;13.748;2023-06-22T08:36:15;27.10;;;25.70;;
1957;SDS011;979;51.076;13.748;2023-06-22T08:38:44;27.10;;;25.60;;
1957;SDS011;979;51.076;13.748;2023-06-22T08:41:19;26.60;;;25.20;;
1957;SDS011;979;51.076;13.748;2023-06-22T08:43:48;25.30;;;24.10;;
1957;SDS011;979;51.076;13.748;2023-06-22T08:46:16;25.43;;;24.13;;
1957;SDS011;979;51.076;13.748;2023-06-22T08:48:49;26.10;;;24.70;;
1957;SDS011;979;51.076;13.748;2023-06-22T08:51:18;26.27;;;24.87;;
1957;SDS011;979;51.076;13.748;2023-06-22T08:53:46;26.93;;;25.30;;
1957;SDS011;979;51.076;13.748;2023-06-22T08:56:16;26.50;;;25.00;;
1957;SDS011;979;51.076;13.748;2023-06-22T08:58:45;26.30;;;24.70;;
1957;SDS011;979;51.076;13.748;2023-06-22T09:01:13;25.73;;;24.40;;
1957;SDS011;979;51.076;13.748;2023-06-22T09:03:48;25.17;;;23.90;;
1957;SDS011;979;51.076;13.748;2023-06-22T09:06:29;25.07;;;23.67;;
1957;SDS011;979;51.076;13.748;2023-06-22T09:08:58;24.47;;;23.37;;
1957;SDS011;979;51.076;13.748;2023-06-22T09:11:27;25.40;;;24.03;;
1957;SDS011;979;51.076;13.748;2023-06-22T09:13:55;24.23;;;22.83;;
1957;SDS011;979;51.076;13.748;2023-06-22T09:16:24;23.17;;;22.07;;
1957;SDS011;979;51.076;13.748;2023-06-22T09:18:53;24.07;;;22.87;;
1957;SDS011;979;51.076;13.748;2023-06-22T09:21:22;24.37;;;23.17;;
1957;SDS011;979;51.076;13.748;2023-06-22T09:23:51;24.33;;;23.17;;
1957;SDS011;979;51.076;13.748;2023-06-22T09:26:20;24.27;;;22.87;;
1957;SDS011;979;51.076;13.748;2023-06-22T09:28:51;24.80;;;23.60;;
1957;SDS011;979;51.076;13.748;2023-06-22T09:31:19;23.27;;;22.17;;
1957;SDS011;979;51.076;13.748;2023-06-22T09:33:53;25.07;;;23.73;;
1957;SDS011;979;51.076;13.748;2023-06-22T09:36:22;24.50;;;23.20;;
1957;SDS011;979;51.076;13.748;2023-06-22T09:38:50;26.33;;;24.83;;
1957;SDS011;979;51.076;13.748;2023-06-22T09:41:21;24.97;;;23.77;;
1957;SDS011;979;51.076;13.748;2023-06-22T09:43:50;25.17;;;23.73;;
1957;SDS011;979;51.076;13.748;2023-06-22T09:46:22;25.93;;;24.63;;
1957;SDS011;979;51.076;13.748;2023-06-22T09:48:51;25.60;;;24.40;;
1957;SDS011;979;51.076;13.748;2023-06-22T09:51:21;25.03;;;23.90;;
1957;SDS011;979;51.076;13.748;2023-06-22T09:53:52;28.40;;;26.10;;
1957;SDS011;979;51.076;13.748;2023-06-22T09:56:21;25.03;;;23.77;;
1957;SDS011;979;51.076;13.748;2023-06-22T09:58:51;25.50;;;24.17;;
1957;SDS011;979;51.076;13.748;2023-06-22T10:01:23;25.43;;;24.03;;
1957;SDS011;979;51.076;13.748;2023-06-22T10:03:52;26.07;;;24.80;;
1957;SDS011;979;51.076;13.748;2023-06-22T10:06:24;25.30;;;23.90;;
1957;SDS011;979;51.076;13.748;2023-06-22T10:08:52;24.57;;;23.33;;
1957;SDS011;979;51.076;13.748;2023-06-22T10:11:20;25.10;;;23.90;;
1957;SDS011;979;51.076;13.748;2023-06-22T10:13:53;25.47;;;24.20;;
1957;SDS011;979;51.076;13.748;2023-06-22T10:16:23;26.20;;;24.90;;
1957;SDS011;979;51.076;13.748;2023-06-22T10:18:58;25.30;;;24.10;;
1957;SDS011;979;51.076;13.748;2023-06-22T10:21:27;25.70;;;24.50;;
1957;SDS011;979;51.076;13.748;2023-06-22T10:23:58;25.87;;;24.37;;
1957;SDS011;979;51.076;13.748;2023-06-22T10:26:32;27.10;;;25.60;;
1957;SDS011;979;51.076;13.748;2023-06-22T10:29:00;25.70;;;24.30;;
1957;SDS011;979;51.076;13.748;2023-06-22T10:31:32;25.67;;;24.27;;
1957;SDS011;979;51.076;13.748;2023-06-22T10:34:02;25.60;;;24.40;;
1957;SDS011;979;51.076;13.748;2023-06-22T10:36:30;26.53;;;25.33;;
1957;SDS011;979;51.076;13.748;2023-06-22T10:38:59;26.23;;;25.00;;
1957;SDS011;979;51.076;13.748;2023-06-22T10:41:42;26.17;;;24.97;;
1957;SDS011;979;51.076;13.748;2023-06-22T10:44:11;25.43;;;24.23;;
1957;SDS011;979;51.076;13.748;2023-06-22T10:46:40;26.33;;;25.03;;
1957;SDS011;979;51.076;13.748;2023-06-22T10:49:09;26.90;;;25.30;;
1957;SDS011;979;51.076;13.748;2023-06-22T10:51:38;26.30;;;25.00;;
1957;SDS011;979;51.076;13.748;2023-06-22T10:54:06;27.00;;;25.60;;
1957;SDS011;979;51.076;13.748;2023-06-22T10:56:35;25.90;;;24.70;;
1957;SDS011;979;51.076;13.748;2023-06-22T10:59:16;27.40;;;26.10;;
1957;SDS011;979;51.076;13.748;2023-06-22T11:01:46;24.93;;;23.73;;
1957;SDS011;979;51.076;13.748;2023-06-22T11:04:17;26.10;;;24.90;;
1957;SDS011;979;51.076;13.748;2023-06-22T11:06:47;28.23;;;26.87;;
1957;SDS011;979;51.076;13.748;2023-06-22T11:09:27;25.80;;;24.50;;
1957;SDS011;979;51.076;13.748;2023-06-22T11:29:55;25.07;;;23.87;;
1957;SDS011;979;51.076;13.748;2023-06-22T11:38:45;25.33;;;24.13;;
1957;SDS011;979;51.076;13.748;2023-06-22T11:41:20;25.60;;;24.40;;
1957;SDS011;979;51.076;13.748;2023-06-22T11:44:06;24.73;;;23.63;;
1957;SDS011;979;51.076;13.748;2023-06-22T11:46:56;24.80;;;23.70;;
1957;SDS011;979;51.076;13.748;2023-06-22T11:49:37;25.07;;;23.80;;
1957;SDS011;979;51.076;13.748;2023-06-22T11:52:07;24.90;;;23.70;;
1957;SDS011;979;51.076;13.748;2023-06-22T11:54:49;26.40;;;25.20;;
1957;SDS011;979;51.076;13.748;2023-06-22T11:57:28;25.00;;;23.90;;
1957;SDS011;979;51.076;13.748;2023-06-22T12:00:14;26.47;;;25.17;;
1957;SDS011;979;51.076;13.748;2023-06-22T12:03:19;25.90;;;24.70;;
1957;SDS011;979;51.076;13.748;2023-06-22T12:05:51;25.43;;;24.10;;
1957;SDS011;979;51.076;13.748;2023-06-22T12:08:27;25.87;;;24.57;;
1957;SDS011;979;51.076;13.748;2023-06-22T12:11:01;25.50;;;24.20;;
1957;SDS011;979;51.076;13.748;2023-06-22T12:13:37;25.83;;;24.47;;
1957;SDS011;979;51.076;13.748;2023-06-22T12:16:23;26.33;;;24.93;;
1957;SDS011;979;51.076;13.748;2023-06-22T12:19:08;25.23;;;24.13;;
1957;SDS011;979;51.076;13.748;2023-06-22T12:21:48;26.97;;;25.67;;
1957;SDS011;979;51.076;13.748;2023-06-22T12:24:19;25.73;;;24.53;;
1957;SDS011;979;51.076;13.748;2023-06-22T12:26:48;27.23;;;26.03;;
1957;SDS011;979;51.076;13.748;2023-06-22T12:29:22;26.10;;;24.90;;
1957;SDS011;979;51.076;13.748;2023-06-22T12:31:50;24.60;;;23.40;;
1957;SDS011;979;51.076;13.748;2023-06-22T12:34:25;27.63;;;26.23;;
1957;SDS011;979;51.076;13.748;2023-06-22T12:36:54;26.90;;;25.33;;
1957;SDS011;979;51.076;13.748;2023-06-22T12:39:22;25.53;;;24.33;;
1957;SDS011;979;51.076;13.748;2023-06-22T12:41:50;26.20;;;24.80;;
1957;SDS011;979;51.076;13.748;2023-06-22T12:44:19;24.63;;;23.10;;
1957;SDS011;979;51.076;13.748;2023-06-22T12:46:47;24.80;;;23.40;;
1957;SDS011;979;51.076;13.748;2023-06-22T12:49:15;24.73;;;23.60;;
1957;SDS011;979;51.076;13.748;2023-06-22T12:51:45;25.60;;;24.20;;
1957;SDS011;979;51.076;13.748;2023-06-22T12:54:15;25.60;;;24.30;;
1957;SDS011;979;51.076;13.748;2023-06-22T12:56:44;25.07;;;23.67;;
1957;SDS011;979;51.076;13.748;2023-06-22T12:59:14;24.43;;;23.40;;
1957;SDS011;979;51.076;13.748;2023-06-22T13:01:43;24.83;;;23.63;;
1957;SDS011;979;51.076;13.748;2023-06-22T13:04:13;25.03;;;23.93;;
1957;SDS011;979;51.076;13.748;2023-06-22T13:06:41;25.03;;;23.90;;
1957;SDS011;979;51.076;13.748;2023-06-22T13:09:11;24.87;;;23.70;;
1957;SDS011;979;51.076;13.748;2023-06-22T13:11:50;24.53;;;23.53;;
1957;SDS011;979;51.076;13.748;2023-06-22T13:14:19;25.70;;;24.53;;
1957;SDS011;979;51.076;13.748;2023-06-22T13:16:49;26.67;;;25.27;;
1957;SDS011;979;51.076;13.748;2023-06-22T13:19:19;25.17;;;23.97;;
1957;SDS011;979;51.076;13.748;2023-06-22T13:21:48;24.10;;;23.10;;
1957;SDS011;979;51.076;13.748;2023-06-22T13:24:18;26.40;;;24.87;;
1957;SDS011;979;51.076;13.748;2023-06-22T13:26:47;25.63;;;24.43;;
1957;SDS011;979;51.076;13.748;2023-06-22T13:29:17;25.03;;;23.80;;
1957;SDS011;979;51.076;13.748;2023-06-22T13:31:45;28.30;;;26.90;;
1957;SDS011;979;51.076;13.748;2023-06-22T13:34:13;25.93;;;24.60;;
1957;SDS011;979;51.076;13.748;2023-06-22T13:36:42;25.43;;;24.13;;
1957;SDS011;979;51.076;13.748;2023-06-22T13:39:10;26.50;;;25.20;;
1957;SDS011;979;51.076;13.748;2023-06-22T13:41:42;24.83;;;23.60;;
1957;SDS011;979;51.076;13.748;2023-06-22T13:44:10;24.73;;;23.20;;
1957;SDS011;979;51.076;13.748;2023-06-22T13:46:39;25.17;;;23.93;;
1957;SDS011;979;51.076;13.748;2023-06-22T13:49:07;25.27;;;24.07;;
1957;SDS011;979;51.076;13.748;2023-06-22T13:51:38;26.60;;;25.00;;
1957;SDS011;979;51.076;13.748;2023-06-22T13:54:06;25.50;;;24.30;;
1957;SDS011;979;51.076;13.748;2023-06-22T13:56:55;26.43;;;25.13;;
1957;SDS011;979;51.076;13.748;2023-06-22T13:59:23;24.57;;;23.47;;
1957;SDS011;979;51.076;13.748;2023-06-22T14:01:56;23.20;;;22.20;;
1957;SDS011;979;51.076;13.748;2023-06-22T14:04:24;24.43;;;23.30;;
1957;SDS011;979;51.076;13.748;2023-06-22T14:06:53;25.60;;;24.13;;
1957;SDS011;979;51.076;13.748;2023-06-22T14:09:23;25.57;;;24.37;;
1957;SDS011;979;51.076;13.748;2023-06-22T14:11:51;24.90;;;23.60;;
1957;SDS011;979;51.076;13.748;2023-06-22T14:14:22;25.27;;;24.10;;
1957;SDS011;979;51.076;13.748;2023-06-22T14:16:53;25.73;;;24.50;;
1957;SDS011;979;51.076;13.748;2023-06-22T14:19:21;25.93;;;24.70;;
1957;SDS011;979;51.076;13.748;2023-06-22T14:21:52;25.67;;;24.37;;
1957;SDS011;979;51.076;13.748;2023-06-22T14:24:23;25.80;;;24.50;;
1957;SDS011;979;51.076;13.748;2023-06-22T14:27:36;25.83;;;24.60;;
1957;SDS011;979;51.076;13.748;2023-06-22T14:30:21;25.30;;;24.10;;
1957;SDS011;979;51.076;13.748;2023-06-22T14:33:01;25.13;;;23.80;;
1957;SDS011;979;51.076;13.748;2023-06-22T14:38:46;24.73;;;23.63;;
1957;SDS011;979;51.076;13.748;2023-06-22T14:41:41;25.83;;;24.53;;
1957;SDS011;979;51.076;13.748;2023-06-22T14:58:39;25.10;;;24.00;;
1957;SDS011;979;51.076;13.748;2023-06-22T15:04:44;27.30;;;25.90;;
1957;SDS011;979;51.076;13.748;2023-06-22T15:07:40;25.83;;;24.53;;
1957;SDS011;979;51.076;13.748;2023-06-22T15:10:38;25.70;;;24.40;;
1957;SDS011;979;51.076;13.748;2023-06-22T15:13:19;25.37;;;24.20;;
1957;SDS011;979;51.076;13.748;2023-06-22T15:23:15;25.80;;;24.60;;
1957;SDS011;979;51.076;13.748;2023-06-22T15:25:52;27.13;;;25.33;;
1957;SDS011;979;51.076;13.748;2023-06-22T15:47:47;25.00;;;23.80;;
1957;SDS011;979;51.076;13.748;2023-06-22T15:50:16;26.13;;;24.90;;
1957;SDS011;979;51.076;13.748;2023-06-22T15:52:48;26.97;;;25.30;;
1957;SDS011;979;51.076;13.748;2023-06-22T15:55:17;24.73;;;23.70;;
1957;SDS011;979;51.076;13.748;2023-06-22T15:57:49;25.93;;;24.67;;
1957;SDS011;979;51.076;13.748;2023-06-22T16:00:18;25.87;;;24.50;;
1957;SDS011;979;51.076;13.748;2023-06-22T16:02:49;25.57;;;24.40;;
1957;SDS011;979;51.076;13.748;2023-06-22T16:05:19;25.30;;;24.20;;
1957;SDS011;979;51.076;13.748;2023-06-22T16:07:48;26.43;;;24.93;;
1957;SDS011;979;51.076;13.748;2023-06-22T16:10:17;26.50;;;25.07;;
1957;SDS011;979;51.076;13.748;2023-06-22T16:12:46;24.33;;;23.13;;
1957;SDS011;979;51.076;13.748;2023-06-22T16:15:18;26.10;;;24.77;;
1957;SDS011;979;51.076;13.748;2023-06-22T16:17:49;25.00;;;23.80;;
1957;SDS011;979;51.076;13.748;2023-06-22T16:20:22;24.43;;;23.33;;
1957;SDS011;979;51.076;13.748;2023-06-22T16:22:51;25.70;;;24.50;;